Time;durP1;ratioP1;P1;durP2;ratioP2;P2;SDS_P1;SDS_P2;PMS_P1;PMS_P2;Temp;Humidity;BMP_temperature;BMP_pressure;BME280_temperature;BME280_humidity;BME280_pressure;Samples;Min_cycle;Max_cycle;Signal;HPM_P1;HPM_P2
2021/04/19 00:02:01;;;;;;;13.50;11.60;;;9.70;99.10;;;;;;5108007;28;20210;-51
2021/04/19 00:04:27;;;;;;;16.50;11.13;;;9.60;99.10;;;;;;5107497;28;20180;-51
2021/04/19 00:06:53;;;;;;;13.13;11.50;;;9.50;99.30;;;;;;5101703;28;20180;-51
2021/04/19 00:09:18;;;;;;;12.87;11.60;;;9.40;99.50;;;;;;5106062;28;20686;-51
2021/04/19 00:11:44;;;;;;;12.50;10.17;;;9.40;99.70;;;;;;5108695;28;20196;-51
2021/04/19 00:14:10;;;;;;;12.03;10.80;;;9.40;99.90;;;;;;5102179;28;20267;-51
2021/04/19 00:16:36;;;;;;;11.10;10.10;;;9.50;99.90;;;;;;5107650;28;20730;-51
2021/04/19 00:19:02;;;;;;;12.10;10.10;;;9.40;99.90;;;;;;5107219;28;20446;-51
2021/04/19 00:21:28;;;;;;;11.77;10.57;;;9.20;99.90;;;;;;5107980;28;20475;-51
2021/04/19 00:23:54;;;;;;;12.30;10.93;;;9.10;99.90;;;;;;5106949;28;20207;-51
2021/04/19 00:26:19;;;;;;;11.63;10.10;;;9.20;99.90;;;;;;5105075;28;20634;-51
2021/04/19 00:28:45;;;;;;;13.27;11.07;;;9.10;99.90;;;;;;5101123;28;20213;-51
2021/04/19 00:31:10;;;;;;;12.47;11.13;;;9.40;99.90;;;;;;5108692;28;20219;-51
2021/04/19 00:33:36;;;;;;;16.70;11.17;;;9.00;99.90;;;;;;5107979;28;20255;-51
2021/04/19 00:36:02;;;;;;;12.07;10.80;;;9.10;99.90;;;;;;5107537;28;20223;-51
2021/04/19 00:38:28;;;;;;;12.17;10.50;;;8.90;99.90;;;;;;5107299;28;20207;-51
2021/04/19 00:40:55;;;;;;;12.05;10.80;;;9.40;99.90;;;;;;5107510;28;20954;-51
2021/04/19 00:43:22;;;;;;;13.18;10.77;;;9.40;99.90;;;;;;5107608;28;20286;-51
2021/04/19 00:45:50;;;;;;;15.15;11.38;;;9.10;99.90;;;;;;5107751;28;20211;-52
2021/04/19 00:48:16;;;;;;;13.45;10.20;;;9.20;99.90;;;;;;5107153;28;20596;-51
2021/04/19 00:50:43;;;;;;;11.32;10.05;;;9.00;99.90;;;;;;5108791;28;20226;-51
2021/04/19 00:53:10;;;;;;;12.40;10.90;;;9.10;99.90;;;;;;5107495;28;20175;-51
2021/04/19 00:55:36;;;;;;;14.00;11.40;;;8.90;99.90;;;;;;5107585;28;20195;-51
2021/04/19 00:58:02;;;;;;;13.07;11.65;;;9.00;99.90;;;;;;5108316;28;20705;-51
2021/04/19 01:00:33;;;;;;;11.83;10.60;;;9.10;99.90;;;;;;5112056;28;20236;-51
2021/04/19 01:02:59;;;;;;;12.70;11.15;;;9.00;99.90;;;;;;5111637;28;20449;-51
2021/04/19 01:05:26;;;;;;;12.73;11.05;;;8.90;99.90;;;;;;5109405;28;20210;-51
2021/04/19 01:07:52;;;;;;;14.65;12.10;;;9.00;99.90;;;;;;5108998;28;20653;-51
2021/04/19 01:10:18;;;;;;;13.65;11.65;;;9.10;99.90;;;;;;5111084;28;20184;-51
2021/04/19 01:12:44;;;;;;;14.03;11.40;;;9.20;99.90;;;;;;5111134;28;20222;-51
2021/04/19 01:15:10;;;;;;;16.80;12.67;;;8.60;99.90;;;;;;5111456;28;20171;-50
2021/04/19 01:17:35;;;;;;;12.55;11.25;;;8.80;99.90;;;;;;5111561;28;20188;-51
2021/04/19 01:20:05;;;;;;;14.87;11.80;;;9.20;99.90;;;;;;5111461;28;20228;-51
2021/04/19 01:22:31;;;;;;;12.93;11.52;;;9.30;99.90;;;;;;5107861;28;20337;-51
2021/04/19 01:24:56;;;;;;;12.10;10.77;;;9.00;99.90;;;;;;5111356;28;20282;-50
2021/04/19 01:27:22;;;;;;;13.97;11.50;;;9.10;99.90;;;;;;5111566;28;20184;-51
2021/04/19 01:29:47;;;;;;;13.80;11.27;;;9.10;99.90;;;;;;5110127;28;20227;-51
2021/04/19 01:32:13;;;;;;;14.20;11.20;;;9.00;99.90;;;;;;5101946;28;20200;-51
2021/04/19 01:34:39;;;;;;;14.10;12.73;;;8.80;99.90;;;;;;5110209;28;20179;-50
2021/04/19 01:37:05;;;;;;;13.37;12.00;;;9.00;99.90;;;;;;5110356;28;20182;-51
2021/04/19 01:39:31;;;;;;;12.75;11.32;;;8.80;99.90;;;;;;5110373;28;20233;-51
2021/04/19 01:41:56;;;;;;;13.37;12.07;;;8.70;99.90;;;;;;5111400;28;20200;-51
2021/04/19 01:44:22;;;;;;;13.40;11.07;;;8.80;99.90;;;;;;5110710;28;20267;-51
2021/04/19 01:46:49;;;;;;;16.30;13.17;;;8.90;99.90;;;;;;5110888;28;20540;-51
2021/04/19 01:49:18;;;;;;;12.98;11.68;;;8.80;99.90;;;;;;5110352;28;20203;-51
2021/04/19 01:51:45;;;;;;;16.45;11.43;;;9.00;99.90;;;;;;5110756;28;20245;-51
2021/04/19 01:54:11;;;;;;;13.07;11.40;;;9.10;99.90;;;;;;5110253;28;20199;-51
2021/04/19 01:56:38;;;;;;;14.50;11.18;;;8.80;99.90;;;;;;5111032;28;20183;-51
2021/04/19 01:59:05;;;;;;;12.75;11.45;;;8.70;99.90;;;;;;5110233;28;20179;-51
2021/04/19 02:01:33;;;;;;;14.88;11.40;;;8.80;99.90;;;;;;5110454;28;20211;-51
2021/04/19 02:04:18;;;;;;;12.32;11.02;;;8.80;99.90;;;;;;5110573;28;20187;-51
2021/04/19 02:07:01;;;;;;;13.30;11.48;;;9.10;99.90;;;;;;5104105;28;20190;-51
2021/04/19 02:10:02;;;;;;;13.38;11.70;;;9.00;99.90;;;;;;5110010;28;20199;-51
2021/04/19 02:12:51;;;;;;;14.02;12.63;;;9.00;99.90;;;;;;5105557;28;20222;-51
2021/04/19 02:15:25;;;;;;;15.70;11.77;;;9.00;99.90;;;;;;5107482;28;20180;-51
2021/04/19 02:17:59;;;;;;;12.50;11.15;;;8.80;99.90;;;;;;5109629;28;20746;-50
2021/04/19 02:20:46;;;;;;;13.55;11.27;;;9.00;99.90;;;;;;5110281;28;20183;-51
2021/04/19 02:23:38;;;;;;;11.45;10.30;;;8.90;99.90;;;;;;5106159;28;20187;-51
2021/04/19 02:26:12;;;;;;;12.60;11.38;;;8.80;99.90;;;;;;5103841;28;20202;-51
2021/04/19 02:28:54;;;;;;;12.77;11.48;;;9.10;99.90;;;;;;5122485;27;20305;-51
2021/04/19 02:31:22;;;;;;;13.55;12.15;;;9.10;99.90;;;;;;5110159;28;20212;-51
2021/04/19 02:33:51;;;;;;;14.65;11.70;;;9.20;99.90;;;;;;5110629;28;20207;-51
2021/04/19 02:36:18;;;;;;;12.55;11.07;;;9.10;99.90;;;;;;5110873;28;20544;-51
2021/04/19 02:38:49;;;;;;;13.00;11.75;;;9.00;99.90;;;;;;5109807;28;20195;-51
2021/04/19 02:41:17;;;;;;;14.00;11.90;;;8.80;99.90;;;;;;5109712;28;20230;-51
2021/04/19 02:43:43;;;;;;;14.27;11.73;;;9.00;99.90;;;;;;5110294;28;20227;-51
2021/04/19 02:46:10;;;;;;;12.38;11.13;;;8.80;99.90;;;;;;5109835;28;20279;-50
2021/04/19 02:48:38;;;;;;;16.38;11.77;;;8.90;99.90;;;;;;5108882;28;20211;-51
2021/04/19 02:51:08;;;;;;;13.00;11.60;;;8.90;99.90;;;;;;5109218;28;20208;-51
2021/04/19 02:53:34;;;;;;;13.18;11.95;;;9.10;99.90;;;;;;5110038;28;20192;-51
2021/04/19 02:56:07;;;;;;;14.68;12.60;;;9.10;99.90;;;;;;5109463;28;20285;-51
2021/04/19 02:58:55;;;;;;;15.65;12.75;;;8.90;99.90;;;;;;5109291;28;20188;-50
2021/04/19 03:01:41;;;;;;;11.73;10.52;;;8.90;99.90;;;;;;5110208;28;20203;-51
2021/04/19 03:04:18;;;;;;;13.57;12.35;;;8.90;99.90;;;;;;5109438;28;20236;-51
2021/04/19 03:06:51;;;;;;;13.75;12.35;;;9.10;99.90;;;;;;5109266;28;20222;-51
2021/04/19 03:09:20;;;;;;;13.70;10.70;;;9.00;99.90;;;;;;5101561;28;20206;-51
2021/04/19 03:11:57;;;;;;;14.20;12.38;;;8.90;99.90;;;;;;5109330;28;20204;-51
2021/04/19 03:14:28;;;;;;;12.90;11.25;;;8.80;99.90;;;;;;5102286;28;20187;-50
2021/04/19 03:17:01;;;;;;;14.50;12.07;;;9.10;99.90;;;;;;5108697;28;20183;-50
2021/04/19 03:19:28;;;;;;;14.07;12.68;;;8.80;99.90;;;;;;5108828;28;20233;-51
2021/04/19 03:21:56;;;;;;;14.40;12.38;;;8.90;99.90;;;;;;5108201;28;20218;-51
2021/04/19 03:24:22;;;;;;;15.43;11.82;;;8.80;99.90;;;;;;5109053;28;20219;-51
2021/04/19 03:26:49;;;;;;;15.63;13.35;;;8.70;99.90;;;;;;5105408;28;20497;-51
2021/04/19 03:29:16;;;;;;;15.75;12.45;;;8.90;99.90;;;;;;5105624;28;20547;-51
2021/04/19 03:31:56;;;;;;;14.23;11.75;;;8.90;99.90;;;;;;5108379;28;20308;-51
2021/04/19 03:34:26;;;;;;;13.43;11.88;;;8.80;99.90;;;;;;5103968;28;20662;-51
2021/04/19 03:37:01;;;;;;;14.25;12.73;;;8.80;99.90;;;;;;5108408;28;20275;-51
2021/04/19 03:39:27;;;;;;;14.18;12.77;;;9.10;99.90;;;;;;5108021;28;20187;-51
2021/04/19 03:41:57;;;;;;;16.05;12.60;;;9.10;99.90;;;;;;5105034;28;20203;-51
2021/04/19 03:44:28;;;;;;;16.23;12.57;;;8.90;99.90;;;;;;5108650;28;20627;-51
2021/04/19 03:46:56;;;;;;;16.35;11.63;;;9.40;99.90;;;;;;5108653;28;20564;-51
2021/04/19 03:49:40;;;;;;;14.57;12.50;;;9.00;99.90;;;;;;5109320;28;20208;-51
2021/04/19 03:52:12;;;;;;;15.85;13.32;;;9.10;99.90;;;;;;5107125;28;20223;-51
2021/04/19 03:54:42;;;;;;;16.02;13.45;;;8.90;99.90;;;;;;5103910;28;20176;-51
2021/04/19 03:57:11;;;;;;;15.93;13.98;;;9.10;99.90;;;;;;5107820;28;20180;-51
2021/04/19 03:59:39;;;;;;;14.93;13.43;;;9.00;99.90;;;;;;5107932;28;20271;-51
2021/04/19 04:02:07;;;;;;;15.93;14.20;;;8.90;99.90;;;;;;5108215;28;20248;-51
2021/04/19 04:04:34;;;;;;;20.08;13.52;;;9.10;99.90;;;;;;5108222;28;20188;-51
2021/04/19 04:07:00;;;;;;;17.30;13.93;;;9.20;99.90;;;;;;5108384;28;20208;-50
2021/04/19 04:09:26;;;;;;;15.40;13.80;;;9.00;99.90;;;;;;5107610;28;20294;-51
2021/04/19 04:11:55;;;;;;;17.77;15.17;;;9.10;99.90;;;;;;5107428;28;20630;-50
2021/04/19 04:14:22;;;;;;;18.70;15.45;;;9.30;99.90;;;;;;5108004;28;20224;-51
2021/04/19 04:16:47;;;;;;;17.15;15.10;;;8.40;99.90;;;;;;5116870;27;20634;-51
2021/04/19 04:19:13;;;;;;;19.33;15.47;;;8.90;99.90;;;;;;5107676;28;20188;-52
2021/04/19 04:21:39;;;;;;;16.80;15.10;;;8.90;99.90;;;;;;5107607;28;20299;-51
2021/04/19 04:24:05;;;;;;;17.47;14.93;;;8.80;99.90;;;;;;5108010;28;20191;-51
2021/04/19 04:26:32;;;;;;;18.75;16.33;;;9.20;99.90;;;;;;5107558;28;20470;-51
2021/04/19 04:28:58;;;;;;;19.17;16.77;;;9.30;99.90;;;;;;5105314;28;20203;-52
2021/04/19 04:31:24;;;;;;;18.67;15.30;;;9.00;99.90;;;;;;5099329;28;20212;-51
2021/04/19 04:33:49;;;;;;;16.40;14.07;;;8.80;99.90;;;;;;5106617;28;20221;-51
2021/04/19 04:36:16;;;;;;;16.97;15.17;;;8.80;99.90;;;;;;5107385;28;20430;-51
2021/04/19 04:38:43;;;;;;;16.52;14.68;;;9.00;99.90;;;;;;5103074;28;20666;-51
2021/04/19 04:41:09;;;;;;;25.33;15.00;;;8.90;99.90;;;;;;5106845;28;20722;-51
2021/04/19 04:43:37;;;;;;;17.00;15.07;;;8.70;99.90;;;;;;5106379;28;20282;-51
2021/04/19 04:46:28;;;;;;;19.08;15.43;;;8.80;99.90;;;;;;5103864;28;20434;-51
2021/04/19 04:48:57;;;;;;;16.75;14.98;;;9.00;99.90;;;;;;5107115;28;20219;-51
2021/04/19 04:51:26;;;;;;;18.30;14.90;;;9.00;99.90;;;;;;5106917;28;20281;-50
2021/04/19 04:53:54;;;;;;;19.35;15.57;;;8.90;99.90;;;;;;5107157;28;20183;-50
2021/04/19 04:56:25;;;;;;;18.45;15.68;;;9.10;99.90;;;;;;5106010;28;20696;-50
2021/04/19 04:58:53;;;;;;;22.58;15.20;;;9.10;99.90;;;;;;5099443;28;20233;-51
2021/04/19 05:01:21;;;;;;;17.88;15.95;;;8.90;99.90;;;;;;5102925;28;20204;-51
2021/04/19 05:03:48;;;;;;;19.38;17.33;;;9.30;99.90;;;;;;5098446;28;20283;-50
2021/04/19 05:06:14;;;;;;;17.52;15.60;;;9.20;99.90;;;;;;5095761;28;20191;-51
2021/04/19 05:08:41;;;;;;;18.45;16.50;;;9.20;99.90;;;;;;5095393;28;20234;-51
2021/04/19 05:11:09;;;;;;;21.13;15.95;;;9.00;99.90;;;;;;5099286;28;20610;-51
2021/04/19 05:13:35;;;;;;;19.73;16.83;;;9.10;99.90;;;;;;5100521;28;20236;-52
2021/04/19 05:16:01;;;;;;;23.65;18.30;;;9.00;99.90;;;;;;5096308;28;20267;-51
2021/04/19 05:18:27;;;;;;;22.17;18.58;;;9.10;99.90;;;;;;5099026;28;20208;-52
2021/04/19 05:20:54;;;;;;;21.27;18.40;;;9.10;99.90;;;;;;5096350;28;20436;-51
2021/04/19 05:23:20;;;;;;;24.30;18.20;;;9.10;99.90;;;;;;5100877;28;20253;-52
2021/04/19 05:25:46;;;;;;;21.90;17.30;;;9.30;99.90;;;;;;5102248;28;20658;-51
2021/04/19 05:28:18;;;;;;;23.67;17.85;;;9.10;99.90;;;;;;5103385;28;20298;-50
2021/04/19 05:30:45;;;;;;;21.42;17.83;;;9.20;99.90;;;;;;5113168;28;20195;-51
2021/04/19 05:33:11;;;;;;;19.67;16.83;;;9.30;99.90;;;;;;5102188;28;20654;-51
2021/04/19 05:35:37;;;;;;;21.08;17.30;;;9.30;99.90;;;;;;5097098;28;20187;-51
2021/04/19 05:38:04;;;;;;;24.77;19.10;;;9.30;99.90;;;;;;5094296;28;20287;-51
2021/04/19 05:40:34;;;;;;;21.23;18.05;;;9.20;99.90;;;;;;5100855;28;20998;-51
2021/04/19 05:43:01;;;;;;;23.13;19.10;;;9.00;99.90;;;;;;5104843;28;20204;-50
2021/04/19 05:45:28;;;;;;;27.77;20.23;;;9.00;99.90;;;;;;5111355;28;20283;-51
2021/04/19 05:47:54;;;;;;;24.02;19.88;;;8.80;99.90;;;;;;5109120;28;20195;-50
2021/04/19 05:50:23;;;;;;;22.45;19.52;;;8.90;99.90;;;;;;5105270;28;20833;-50
2021/04/19 05:52:51;;;;;;;23.85;19.45;;;8.80;99.90;;;;;;5101242;28;20199;-50
2021/04/19 05:55:18;;;;;;;23.40;19.00;;;8.90;99.90;;;;;;5107352;27;20661;-56
2021/04/19 05:57:56;;;;;;;22.90;18.48;;;8.60;99.90;;;;;;5109003;28;20559;-55
2021/04/19 06:00:53;;;;;;;24.35;20.23;;;8.50;99.90;;;;;;5103868;28;20281;-55
2021/04/19 06:03:21;;;;;;;22.98;19.15;;;8.90;99.90;;;;;;5093975;28;20244;-53
2021/04/19 06:06:07;;;;;;;27.95;20.90;;;9.00;99.90;;;;;;5109469;28;20707;-55
2021/04/19 06:08:43;;;;;;;24.52;19.65;;;8.90;99.90;;;;;;5106061;28;20204;-53
2021/04/19 06:11:22;;;;;;;26.48;19.60;;;8.90;99.90;;;;;;5110257;28;20199;-54
2021/04/19 06:13:51;;;;;;;25.08;20.02;;;8.90;99.90;;;;;;5108198;27;20180;-54
2021/04/19 06:16:18;;;;;;;25.92;21.25;;;8.90;99.90;;;;;;5107799;28;20215;-52
2021/04/19 06:18:45;;;;;;;25.65;21.13;;;9.10;99.90;;;;;;5110093;28;20188;-52
2021/04/19 06:21:13;;;;;;;24.73;19.77;;;8.90;99.90;;;;;;5106714;28;20204;-50
2021/04/19 06:23:40;;;;;;;28.00;20.83;;;8.80;99.90;;;;;;5121793;27;20184;-54
2021/04/19 06:26:08;;;;;;;22.75;20.13;;;8.60;99.90;;;;;;5104977;28;20189;-53
2021/04/19 06:28:33;;;;;;;27.20;21.00;;;8.60;99.90;;;;;;5105462;28;20204;-55
2021/04/19 06:31:03;;;;;;;25.90;20.55;;;8.70;99.90;;;;;;5107352;28;20699;-51
2021/04/19 06:33:32;;;;;;;25.80;21.35;;;8.50;99.90;;;;;;5102317;28;20627;-50
2021/04/19 06:35:58;;;;;;;25.45;20.85;;;8.50;99.90;;;;;;5107404;28;20675;-50
2021/04/19 06:38:24;;;;;;;32.77;21.57;;;8.70;99.90;;;;;;5104949;27;20183;-50
2021/04/19 06:40:50;;;;;;;24.60;20.85;;;8.70;99.90;;;;;;5099737;28;20188;-50
2021/04/19 06:43:17;;;;;;;26.47;21.90;;;8.70;99.90;;;;;;5105673;28;20187;-49
2021/04/19 06:45:44;;;;;;;27.02;20.95;;;8.10;99.90;;;;;;5104093;28;20203;-52
2021/04/19 06:48:11;;;;;;;26.27;22.45;;;8.50;99.90;;;;;;5105884;28;20214;-52
2021/04/19 06:50:39;;;;;;;26.70;22.50;;;8.50;99.90;;;;;;5104946;28;20184;-52
2021/04/19 06:53:05;;;;;;;27.60;22.42;;;8.90;99.90;;;;;;5108485;28;20187;-51
2021/04/19 06:55:31;;;;;;;25.77;22.17;;;8.70;99.90;;;;;;5096237;28;20181;-51
2021/04/19 06:58:00;;;;;;;29.17;22.67;;;8.50;99.90;;;;;;5109214;28;20643;-52
2021/04/19 07:00:30;;;;;;;32.13;23.60;;;8.80;99.90;;;;;;5108220;28;20202;-51
2021/04/19 07:02:58;;;;;;;28.15;22.77;;;8.90;99.90;;;;;;5106786;28;20286;-49
2021/04/19 07:05:29;;;;;;;27.92;20.52;;;8.80;99.90;;;;;;5106048;28;20520;-50
2021/04/19 07:08:05;;;;;;;20.77;18.48;;;9.00;99.90;;;;;;5101619;28;20655;-53
2021/04/19 07:10:34;;;;;;;25.05;20.40;;;9.20;99.90;;;;;;5105202;28;20179;-50
2021/04/19 07:13:11;;;;;;;22.77;19.77;;;9.20;99.90;;;;;;5102375;28;20253;-49
2021/04/19 07:15:40;;;;;;;21.52;17.40;;;9.10;99.90;;;;;;5101739;28;20240;-49
2021/04/19 07:18:06;;;;;;;21.02;17.77;;;8.80;99.90;;;;;;5108921;28;20194;-49
2021/04/19 07:20:33;;;;;;;24.73;18.02;;;9.10;99.90;;;;;;5108279;28;20518;-50
2021/04/19 07:23:00;;;;;;;18.90;16.98;;;9.10;99.90;;;;;;5102705;28;20274;-50
2021/04/19 07:25:26;;;;;;;21.95;17.83;;;9.10;99.90;;;;;;5105242;28;20176;-52
2021/04/19 07:27:52;;;;;;;20.70;17.25;;;8.80;99.90;;;;;;5104650;28;20192;-51
2021/04/19 07:30:18;;;;;;;20.23;16.60;;;9.00;99.90;;;;;;5102859;28;21212;-54
2021/04/19 07:32:44;;;;;;;20.60;18.10;;;9.00;99.90;;;;;;5108337;28;20242;-53
2021/04/19 07:35:11;;;;;;;21.40;17.73;;;9.00;99.90;;;;;;5099984;28;20187;-53
2021/04/19 07:37:37;;;;;;;28.95;18.05;;;8.70;99.90;;;;;;5101296;28;20232;-53
2021/04/19 07:40:06;;;;;;;21.00;18.08;;;8.70;99.90;;;;;;5104352;28;20191;-52
2021/04/19 07:42:36;;;;;;;20.45;18.23;;;9.00;99.90;;;;;;5113564;27;20313;-51
2021/04/19 07:45:04;;;;;;;23.65;19.23;;;8.70;99.90;;;;;;5104484;28;20188;-50
2021/04/19 07:47:38;;;;;;;20.90;18.55;;;8.90;99.90;;;;;;5108375;28;20179;-51
2021/04/19 07:50:06;;;;;;;21.98;16.50;;;8.60;99.90;;;;;;5106643;28;20695;-50
2021/04/19 07:52:37;;;;;;;21.38;17.02;;;8.70;99.90;;;;;;5101416;28;20416;-51
2021/04/19 07:55:07;;;;;;;26.88;17.45;;;9.00;99.90;;;;;;5105410;28;20184;-49
2021/04/19 07:57:33;;;;;;;21.73;18.88;;;8.90;99.90;;;;;;5098391;28;20187;-53
2021/04/19 07:59:59;;;;;;;20.50;17.27;;;9.00;99.90;;;;;;5107042;28;20180;-53
2021/04/19 08:02:25;;;;;;;20.98;17.60;;;9.00;99.90;;;;;;5104816;28;20577;-49
2021/04/19 08:04:52;;;;;;;20.90;16.70;;;9.00;99.90;;;;;;5108162;28;20274;-49
2021/04/19 08:07:23;;;;;;;20.48;18.27;;;9.30;99.90;;;;;;5106429;28;20247;-49
2021/04/19 08:09:59;;;;;;;22.65;18.02;;;9.30;99.90;;;;;;5105718;28;20381;-50
2021/04/19 08:12:35;;;;;;;20.95;18.80;;;9.20;99.90;;;;;;5103625;28;20199;-50
2021/04/19 08:15:03;;;;;;;24.38;19.98;;;9.00;99.90;;;;;;5102736;28;20262;-51
2021/04/19 08:17:31;;;;;;;23.40;18.45;;;9.20;99.90;;;;;;5106114;28;20217;-51
2021/04/19 08:19:58;;;;;;;19.70;17.50;;;9.40;99.90;;;;;;5125080;27;20190;-51
2021/04/19 08:22:29;;;;;;;22.20;17.20;;;9.60;99.90;;;;;;5106386;28;20248;-51
2021/04/19 08:25:27;;;;;;;21.50;17.55;;;9.60;99.90;;;;;;5105676;28;20705;-51
2021/04/19 08:28:14;;;;;;;20.85;18.13;;;9.50;99.90;;;;;;5062303;28;20449;-50
2021/04/19 08:30:41;;;;;;;19.65;16.85;;;9.40;99.90;;;;;;5101288;28;20797;-52
2021/04/19 08:33:09;;;;;;;22.85;17.35;;;9.30;99.90;;;;;;5108033;28;20203;-51
2021/04/19 08:35:34;;;;;;;25.13;19.35;;;9.30;99.90;;;;;;5104701;28;20227;-52
2021/04/19 08:38:04;;;;;;;20.63;18.37;;;9.20;99.90;;;;;;5108793;28;20203;-53
2021/04/19 08:40:33;;;;;;;26.65;19.65;;;9.30;99.90;;;;;;5107225;28;20187;-53
2021/04/19 08:42:59;;;;;;;26.15;19.95;;;9.40;99.90;;;;;;5104049;28;20234;-53
2021/04/19 08:45:26;;;;;;;22.63;18.10;;;9.40;99.90;;;;;;5103551;28;20646;-53
2021/04/19 08:47:53;;;;;;;23.20;18.90;;;9.50;99.90;;;;;;5103684;28;20433;-53
2021/04/19 08:50:23;;;;;;;21.15;17.88;;;9.60;99.90;;;;;;5108419;28;20184;-52
2021/04/19 08:52:52;;;;;;;25.70;19.65;;;9.50;99.90;;;;;;5103913;28;20200;-52
2021/04/19 08:55:18;;;;;;;22.05;19.75;;;9.70;99.90;;;;;;5108128;28;20183;-54
2021/04/19 08:57:45;;;;;;;26.33;21.30;;;9.60;99.90;;;;;;5100416;28;20270;-55
2021/04/19 09:00:14;;;;;;;22.60;19.38;;;9.70;99.90;;;;;;5104044;28;20206;-52
2021/04/19 09:02:40;;;;;;;25.17;21.38;;;9.50;99.90;;;;;;5102087;28;20431;-53
2021/04/19 09:05:13;;;;;;;24.23;21.23;;;9.60;99.90;;;;;;5100411;28;20190;-53
2021/04/19 09:07:42;;;;;;;24.35;20.63;;;9.70;99.90;;;;;;5105723;28;20476;-52
2021/04/19 09:10:12;;;;;;;22.65;17.50;;;9.40;99.90;;;;;;5106925;28;20180;-52
2021/04/19 09:12:38;;;;;;;21.42;17.70;;;9.60;99.90;;;;;;5100601;28;20206;-53
2021/04/19 09:15:29;;;;;;;21.42;17.55;;;9.40;99.90;;;;;;5104279;28;20207;-53
2021/04/19 09:18:09;;;;;;;21.08;17.85;;;9.50;99.90;;;;;;5101227;28;20187;-52
2021/04/19 09:20:43;;;;;;;22.77;17.55;;;9.60;99.90;;;;;;5104769;28;20184;-53
2021/04/19 09:23:17;;;;;;;19.50;16.80;;;9.30;99.90;;;;;;5111152;28;20168;-53
2021/04/19 09:25:43;;;;;;;22.75;17.55;;;9.70;99.90;;;;;;5105597;28;20279;-52
2021/04/19 09:28:08;;;;;;;17.70;15.70;;;9.40;99.90;;;;;;5109958;28;20298;-52
2021/04/19 09:30:37;;;;;;;17.37;15.47;;;9.70;99.90;;;;;;5102808;28;20461;-51
2021/04/19 09:33:03;;;;;;;19.58;16.02;;;9.60;99.90;;;;;;5109181;28;20176;-50
2021/04/19 09:35:49;;;;;;;18.07;16.17;;;9.60;99.90;;;;;;5109791;28;20176;-52
2021/04/19 09:38:39;;;;;;;19.17;16.77;;;9.70;99.90;;;;;;5108360;28;20442;-52
2021/04/19 09:41:17;;;;;;;21.67;16.85;;;9.50;99.90;;;;;;5104181;28;20268;-53
2021/04/19 09:43:44;;;;;;;22.50;16.92;;;9.40;99.90;;;;;;5105915;28;20193;-52
2021/04/19 09:46:16;;;;;;;23.27;18.70;;;9.70;99.90;;;;;;5106284;28;20188;-52
2021/04/19 09:48:46;;;;;;;20.38;17.15;;;9.50;99.90;;;;;;5103369;28;20233;-52
2021/04/19 09:51:18;;;;;;;22.50;17.85;;;9.80;99.90;;;;;;5109435;28;20286;-52
2021/04/19 09:53:54;;;;;;;19.33;16.73;;;10.00;99.90;;;;;;5098258;28;20224;-52
2021/04/19 09:56:36;;;;;;;23.35;16.65;;;9.70;99.90;;;;;;5103240;28;20229;-52
2021/04/19 09:59:07;;;;;;;23.13;17.30;;;9.90;99.90;;;;;;5100905;28;20190;-52
2021/04/19 10:01:34;;;;;;;20.35;17.02;;;10.10;99.90;;;;;;5107325;28;20205;-52
2021/04/19 10:04:01;;;;;;;24.00;16.95;;;10.10;99.90;;;;;;5103060;28;20184;-52
2021/04/19 10:06:29;;;;;;;23.52;18.50;;;10.20;99.90;;;;;;5101816;27;20234;-52
2021/04/19 10:08:57;;;;;;;20.75;17.52;;;10.00;99.90;;;;;;5107620;28;20754;-52
2021/04/19 10:11:28;;;;;;;21.88;18.33;;;9.80;99.90;;;;;;5108963;28;20480;-52
2021/04/19 10:13:55;;;;;;;20.25;17.05;;;10.00;99.90;;;;;;5104537;28;20283;-52
2021/04/19 10:16:21;;;;;;;21.60;18.58;;;10.10;99.90;;;;;;5100222;28;20183;-52
2021/04/19 10:18:50;;;;;;;19.20;16.90;;;10.20;99.90;;;;;;5108112;28;20183;-52
2021/04/19 10:21:30;;;;;;;22.17;17.80;;;10.30;99.90;;;;;;5108036;28;20584;-52
2021/04/19 10:23:56;;;;;;;21.52;17.60;;;10.60;99.90;;;;;;5115578;27;20186;-52
2021/04/19 10:26:35;;;;;;;23.45;17.88;;;10.50;99.90;;;;;;5108827;28;20187;-53
2021/04/19 10:29:16;;;;;;;21.08;17.45;;;10.90;99.90;;;;;;5122061;27;20207;-52
2021/04/19 10:31:51;;;;;;;18.70;16.70;;;10.90;99.90;;;;;;5123918;27;20221;-53
2021/04/19 10:34:17;;;;;;;21.10;17.63;;;10.50;99.90;;;;;;5108036;28;20455;-51
2021/04/19 10:36:45;;;;;;;23.13;17.25;;;11.00;99.90;;;;;;5108727;28;20676;-52
2021/04/19 10:39:14;;;;;;;21.10;18.02;;;11.10;99.90;;;;;;5118975;27;20682;-53
2021/04/19 10:41:40;;;;;;;21.10;18.83;;;10.80;99.90;;;;;;5101023;28;20224;-52
2021/04/19 10:44:10;;;;;;;20.27;17.02;;;10.80;99.90;;;;;;5102913;28;20219;-54
2021/04/19 10:46:39;;;;;;;20.20;17.55;;;11.10;99.90;;;;;;5107766;28;20549;-52
2021/04/19 10:49:06;;;;;;;19.80;17.30;;;11.10;99.90;;;;;;5104175;28;20314;-54
2021/04/19 10:51:34;;;;;;;19.75;17.60;;;10.60;99.90;;;;;;5105917;28;20199;-54
2021/04/19 10:54:03;;;;;;;20.33;16.98;;;11.20;99.90;;;;;;5104718;28;20687;-53
2021/04/19 10:56:30;;;;;;;22.23;18.45;;;11.20;99.90;;;;;;5107980;28;20661;-53
2021/04/19 10:58:59;;;;;;;23.00;18.70;;;11.10;99.90;;;;;;5107183;28;20490;-53
2021/04/19 11:01:30;;;;;;;19.58;16.38;;;11.10;99.90;;;;;;5108640;27;20207;-53
2021/04/19 11:03:59;;;;;;;18.73;16.73;;;10.80;99.90;;;;;;5107677;28;20274;-53
2021/04/19 11:06:25;;;;;;;23.45;19.05;;;11.10;99.90;;;;;;5105406;28;20195;-53
2021/04/19 11:09:06;;;;;;;19.37;17.30;;;10.90;99.90;;;;;;5108097;28;20502;-53
2021/04/19 11:11:43;;;;;;;22.63;18.40;;;11.30;99.90;;;;;;5106248;28;20200;-52
2021/04/19 11:14:19;;;;;;;19.83;17.65;;;11.20;99.90;;;;;;5102128;28;20179;-53
2021/04/19 11:17:05;;;;;;;23.45;17.45;;;11.40;99.90;;;;;;5109023;28;20646;-53
2021/04/19 11:19:42;;;;;;;21.80;16.83;;;11.30;99.90;;;;;;5100115;28;20193;-52
2021/04/19 11:22:27;;;;;;;17.30;15.27;;;11.40;99.90;;;;;;5108259;28;20698;-53
2021/04/19 11:24:54;;;;;;;21.80;18.10;;;11.30;99.90;;;;;;5100266;28;20654;-52
2021/04/19 11:27:25;;;;;;;17.30;15.55;;;11.30;99.90;;;;;;5108063;28;20195;-53
2021/04/19 11:29:51;;;;;;;20.17;16.88;;;11.30;99.90;;;;;;5106679;28;20215;-54
2021/04/19 11:32:32;;;;;;;48.60;37.25;;;11.50;99.90;;;;;;5095904;28;20231;-53
2021/04/19 11:34:58;;;;;;;21.15;14.90;;;11.40;99.90;;;;;;5108350;28;20210;-53
2021/04/19 11:37:31;;;;;;;19.77;15.75;;;11.30;99.90;;;;;;5105649;28;20263;-53
2021/04/19 11:39:57;;;;;;;22.58;16.75;;;11.30;99.90;;;;;;5107677;28;20667;-52
2021/04/19 11:42:32;;;;;;;21.38;17.33;;;11.30;99.90;;;;;;5103231;28;20236;-51
2021/04/19 11:44:58;;;;;;;18.90;16.40;;;11.50;99.90;;;;;;5103868;28;20180;-50
2021/04/19 11:47:24;;;;;;;17.07;15.33;;;11.70;99.90;;;;;;5104304;28;20314;-52
2021/04/19 11:49:52;;;;;;;17.70;15.90;;;11.30;99.90;;;;;;5105958;28;20783;-51
2021/04/19 11:52:18;;;;;;;19.58;14.70;;;11.80;99.90;;;;;;5108217;28;20586;-53
2021/04/19 11:54:43;;;;;;;16.67;14.05;;;11.80;99.90;;;;;;5107391;28;20668;-53
2021/04/19 11:57:09;;;;;;;17.60;14.60;;;11.90;99.90;;;;;;5101596;28;20187;-51
2021/04/19 11:59:35;;;;;;;16.90;14.23;;;12.10;99.90;;;;;;5106322;28;20188;-52
2021/04/19 12:02:02;;;;;;;16.75;14.95;;;11.30;99.90;;;;;;5106468;28;20208;-53
2021/04/19 12:04:29;;;;;;;19.00;14.52;;;11.70;99.90;;;;;;5102456;28;20190;-53
2021/04/19 12:06:55;;;;;;;17.10;14.85;;;12.00;99.90;;;;;;5102553;28;20185;-55
2021/04/19 12:09:21;;;;;;;17.15;14.50;;;11.60;99.90;;;;;;5105877;28;20196;-52
2021/04/19 12:11:46;;;;;;;14.87;13.27;;;11.70;99.90;;;;;;5102023;28;20755;-52
2021/04/19 12:14:12;;;;;;;37.27;25.20;;;11.60;99.90;;;;;;5105279;28;20263;-51
2021/04/19 12:16:37;;;;;;;15.80;13.50;;;11.90;99.90;;;;;;5105076;28;20190;-52
2021/04/19 12:19:03;;;;;;;16.63;13.70;;;12.00;99.90;;;;;;5102270;28;20188;-53
2021/04/19 12:21:29;;;;;;;14.53;12.97;;;12.10;99.90;;;;;;5107746;28;20238;-51
2021/04/19 12:23:55;;;;;;;15.73;13.77;;;12.10;99.90;;;;;;5106868;28;20779;-51
2021/04/19 12:26:21;;;;;;;15.47;12.90;;;11.90;99.90;;;;;;5102094;28;20184;-52
2021/04/19 12:28:47;;;;;;;14.93;13.30;;;11.40;99.90;;;;;;5106661;28;20238;-53
2021/04/19 12:31:13;;;;;;;15.35;12.27;;;11.60;99.90;;;;;;5104340;28;20455;-52
2021/04/19 12:33:39;;;;;;;13.52;11.40;;;11.80;99.90;;;;;;5108383;28;20206;-52
2021/04/19 12:36:06;;;;;;;13.70;12.17;;;12.20;99.90;;;;;;5107142;28;20204;-52
2021/04/19 12:38:32;;;;;;;13.68;12.23;;;12.10;99.90;;;;;;5106682;28;20184;-52
2021/04/19 12:40:57;;;;;;;12.93;11.60;;;12.00;99.90;;;;;;5106601;28;20206;-53
2021/04/19 12:43:23;;;;;;;14.40;12.27;;;12.30;99.90;;;;;;5106610;28;20497;-53
2021/04/19 12:45:49;;;;;;;13.97;12.47;;;12.60;99.90;;;;;;5102802;28;20233;-53
2021/04/19 12:48:14;;;;;;;11.67;10.47;;;12.10;99.90;;;;;;5102852;28;20295;-54